sensor_id;sensor_type;location;lat;lon;timestamp;temperature;humidity
1297;DHT22;641;48.492;9.184;2023-07-20T00:00:45;20.10;57.60
1297;DHT22;641;48.492;9.184;2023-07-20T00:03:14;20.00;57.90
1297;DHT22;641;48.492;9.184;2023-07-20T00:05:44;20.10;58.00
1297;DHT22;641;48.492;9.184;2023-07-20T00:08:10;20.00;58.30
1297;DHT22;641;48.492;9.184;2023-07-20T00:10:35;20.00;58.30
1297;DHT22;641;48.492;9.184;2023-07-20T00:13:01;20.00;57.00
1297;DHT22;641;48.492;9.184;2023-07-20T00:15:26;20.00;57.70
1297;DHT22;641;48.492;9.184;2023-07-20T00:17:52;20.00;56.20
1297;DHT22;641;48.492;9.184;2023-07-20T00:20:18;19.90;55.80
1297;DHT22;641;48.492;9.184;2023-07-20T00:22:43;19.90;54.90
1297;DHT22;641;48.492;9.184;2023-07-20T00:25:09;19.90;55.70
1297;DHT22;641;48.492;9.184;2023-07-20T00:27:37;19.80;55.40
1297;DHT22;641;48.492;9.184;2023-07-20T00:30:04;19.80;55.20
1297;DHT22;641;48.492;9.184;2023-07-20T00:32:29;19.90;56.80
1297;DHT22;641;48.492;9.184;2023-07-20T00:34:55;19.90;55.80
1297;DHT22;641;48.492;9.184;2023-07-20T00:37:21;19.80;54.60
1297;DHT22;641;48.492;9.184;2023-07-20T00:39:46;19.70;54.60
1297;DHT22;641;48.492;9.184;2023-07-20T00:42:12;19.70;56.40
1297;DHT22;641;48.492;9.184;2023-07-20T00:44:37;19.80;57.10
1297;DHT22;641;48.492;9.184;2023-07-20T00:47:04;19.70;55.90
1297;DHT22;641;48.492;9.184;2023-07-20T00:49:29;19.70;57.20
1297;DHT22;641;48.492;9.184;2023-07-20T00:51:55;19.70;56.80
1297;DHT22;641;48.492;9.184;2023-07-20T00:54:21;19.80;57.50
1297;DHT22;641;48.492;9.184;2023-07-20T00:56:46;19.80;58.10
1297;DHT22;641;48.492;9.184;2023-07-20T00:59:13;19.60;56.10
1297;DHT22;641;48.492;9.184;2023-07-20T01:01:38;19.60;56.70
1297;DHT22;641;48.492;9.184;2023-07-20T01:04:04;19.60;57.40
1297;DHT22;641;48.492;9.184;2023-07-20T01:06:41;19.60;57.10
1297;DHT22;641;48.492;9.184;2023-07-20T01:09:18;19.50;57.50
1297;DHT22;641;48.492;9.184;2023-07-20T01:11:56;19.60;57.90
1297;DHT22;641;48.492;9.184;2023-07-20T01:14:24;19.60;58.40
1297;DHT22;641;48.492;9.184;2023-07-20T01:16:50;19.60;57.30
1297;DHT22;641;48.492;9.184;2023-07-20T01:19:17;19.60;57.00
1297;DHT22;641;48.492;9.184;2023-07-20T01:21:59;19.50;57.20
1297;DHT22;641;48.492;9.184;2023-07-20T01:24:51;19.60;57.50
1297;DHT22;641;48.492;9.184;2023-07-20T01:33:27;19.40;58.00
1297;DHT22;641;48.492;9.184;2023-07-20T01:35:58;19.40;55.90
1297;DHT22;641;48.492;9.184;2023-07-20T01:38:24;19.30;56.90
1297;DHT22;641;48.492;9.184;2023-07-20T01:40:50;19.30;57.60
1297;DHT22;641;48.492;9.184;2023-07-20T01:43:17;19.30;57.80
1297;DHT22;641;48.492;9.184;2023-07-20T01:45:43;19.20;56.60
1297;DHT22;641;48.492;9.184;2023-07-20T01:48:09;19.20;57.20
1297;DHT22;641;48.492;9.184;2023-07-20T01:50:35;19.20;56.00
1297;DHT22;641;48.492;9.184;2023-07-20T01:53:01;19.20;56.80
1297;DHT22;641;48.492;9.184;2023-07-20T01:55:26;19.00;54.30
1297;DHT22;641;48.492;9.184;2023-07-20T01:57:52;18.90;55.10
1297;DHT22;641;48.492;9.184;2023-07-20T02:00:18;18.80;54.90
1297;DHT22;641;48.492;9.184;2023-07-20T02:02:49;18.80;55.40
1297;DHT22;641;48.492;9.184;2023-07-20T02:05:15;18.80;55.40
1297;DHT22;641;48.492;9.184;2023-07-20T02:07:41;18.80;56.40
1297;DHT22;641;48.492;9.184;2023-07-20T02:10:06;18.80;55.60
1297;DHT22;641;48.492;9.184;2023-07-20T02:12:32;18.80;55.60
1297;DHT22;641;48.492;9.184;2023-07-20T02:14:57;18.70;56.30
1297;DHT22;641;48.492;9.184;2023-07-20T02:17:23;18.70;56.20
1297;DHT22;641;48.492;9.184;2023-07-20T02:19:56;18.70;56.20
1297;DHT22;641;48.492;9.184;2023-07-20T02:22:22;18.60;56.50
1297;DHT22;641;48.492;9.184;2023-07-20T02:24:48;18.60;56.60
1297;DHT22;641;48.492;9.184;2023-07-20T02:27:14;18.60;57.30
1297;DHT22;641;48.492;9.184;2023-07-20T02:29:41;18.60;57.20
1297;DHT22;641;48.492;9.184;2023-07-20T02:32:07;18.50;56.90
1297;DHT22;641;48.492;9.184;2023-07-20T02:34:33;18.50;57.30
1297;DHT22;641;48.492;9.184;2023-07-20T02:36:59;18.50;57.90
1297;DHT22;641;48.492;9.184;2023-07-20T02:39:27;18.50;57.80
1297;DHT22;641;48.492;9.184;2023-07-20T02:41:53;18.60;58.60
1297;DHT22;641;48.492;9.184;2023-07-20T02:44:19;18.60;59.50
1297;DHT22;641;48.492;9.184;2023-07-20T02:46:44;18.60;58.20
1297;DHT22;641;48.492;9.184;2023-07-20T02:49:10;18.60;57.70
1297;DHT22;641;48.492;9.184;2023-07-20T02:51:35;18.60;57.80
1297;DHT22;641;48.492;9.184;2023-07-20T02:54:01;18.50;58.20
1297;DHT22;641;48.492;9.184;2023-07-20T02:56:27;18.40;58.40
1297;DHT22;641;48.492;9.184;2023-07-20T02:58:52;18.40;57.50
1297;DHT22;641;48.492;9.184;2023-07-20T03:01:18;18.30;57.60
1297;DHT22;641;48.492;9.184;2023-07-20T03:03:44;18.20;57.70
1297;DHT22;641;48.492;9.184;2023-07-20T03:06:16;18.00;57.70
1297;DHT22;641;48.492;9.184;2023-07-20T03:08:42;18.00;58.10
1297;DHT22;641;48.492;9.184;2023-07-20T03:11:16;18.00;57.90
1297;DHT22;641;48.492;9.184;2023-07-20T03:13:42;18.10;58.90
1297;DHT22;641;48.492;9.184;2023-07-20T03:16:08;18.00;58.80
1297;DHT22;641;48.492;9.184;2023-07-20T03:18:37;18.00;60.70
1297;DHT22;641;48.492;9.184;2023-07-20T03:21:04;18.00;60.20
1297;DHT22;641;48.492;9.184;2023-07-20T03:23:30;18.00;59.20
1297;DHT22;641;48.492;9.184;2023-07-20T03:25:55;17.90;59.50
1297;DHT22;641;48.492;9.184;2023-07-20T03:28:21;17.90;61.10
1297;DHT22;641;48.492;9.184;2023-07-20T03:30:48;17.90;60.50
1297;DHT22;641;48.492;9.184;2023-07-20T03:33:17;17.70;59.50
1297;DHT22;641;48.492;9.184;2023-07-20T03:35:43;17.60;62.40
1297;DHT22;641;48.492;9.184;2023-07-20T03:38:08;17.60;61.00
1297;DHT22;641;48.492;9.184;2023-07-20T03:40:34;17.50;61.00
1297;DHT22;641;48.492;9.184;2023-07-20T03:42:59;17.40;62.60
1297;DHT22;641;48.492;9.184;2023-07-20T03:45:25;17.40;64.40
1297;DHT22;641;48.492;9.184;2023-07-20T03:47:50;17.30;62.30
1297;DHT22;641;48.492;9.184;2023-07-20T03:50:16;17.30;63.80
1297;DHT22;641;48.492;9.184;2023-07-20T03:52:42;17.40;65.20
1297;DHT22;641;48.492;9.184;2023-07-20T03:55:07;17.50;64.00
1297;DHT22;641;48.492;9.184;2023-07-20T03:57:33;17.40;63.20
1297;DHT22;641;48.492;9.184;2023-07-20T03:59:59;17.40;63.40
1297;DHT22;641;48.492;9.184;2023-07-20T04:02:25;17.30;62.90
1297;DHT22;641;48.492;9.184;2023-07-20T04:04:51;17.20;63.10
1297;DHT22;641;48.492;9.184;2023-07-20T04:07:16;17.20;63.30
1297;DHT22;641;48.492;9.184;2023-07-20T04:09:42;17.10;63.40
1297;DHT22;641;48.492;9.184;2023-07-20T04:12:07;17.10;64.60
1297;DHT22;641;48.492;9.184;2023-07-20T04:14:33;17.30;66.80
1297;DHT22;641;48.492;9.184;2023-07-20T04:16:59;17.60;66.10
1297;DHT22;641;48.492;9.184;2023-07-20T04:19:26;17.50;64.00
1297;DHT22;641;48.492;9.184;2023-07-20T04:21:51;17.40;62.50
1297;DHT22;641;48.492;9.184;2023-07-20T04:24:17;17.30;61.70
1297;DHT22;641;48.492;9.184;2023-07-20T04:26:42;17.20;65.60
1297;DHT22;641;48.492;9.184;2023-07-20T04:29:08;17.50;66.20
1297;DHT22;641;48.492;9.184;2023-07-20T04:31:34;17.30;61.20
1297;DHT22;641;48.492;9.184;2023-07-20T04:34:00;17.20;61.70
1297;DHT22;641;48.492;9.184;2023-07-20T04:36:26;17.20;62.40
1297;DHT22;641;48.492;9.184;2023-07-20T04:38:52;17.40;66.20
1297;DHT22;641;48.492;9.184;2023-07-20T04:41:17;17.60;66.10
1297;DHT22;641;48.492;9.184;2023-07-20T04:43:44;17.50;65.10
1297;DHT22;641;48.492;9.184;2023-07-20T04:46:10;17.60;65.80
1297;DHT22;641;48.492;9.184;2023-07-20T04:48:36;17.60;64.30
1297;DHT22;641;48.492;9.184;2023-07-20T04:51:02;17.70;65.30
1297;DHT22;641;48.492;9.184;2023-07-20T04:53:28;17.70;63.80
1297;DHT22;641;48.492;9.184;2023-07-20T04:55:54;17.70;64.90
1297;DHT22;641;48.492;9.184;2023-07-20T04:58:20;17.60;65.50
1297;DHT22;641;48.492;9.184;2023-07-20T05:00:47;17.60;64.80
1297;DHT22;641;48.492;9.184;2023-07-20T05:03:13;17.70;64.60
1297;DHT22;641;48.492;9.184;2023-07-20T05:05:39;17.80;65.60
1297;DHT22;641;48.492;9.184;2023-07-20T05:08:04;17.80;64.10
1297;DHT22;641;48.492;9.184;2023-07-20T05:10:30;17.80;63.70
1297;DHT22;641;48.492;9.184;2023-07-20T05:12:56;17.90;64.20
1297;DHT22;641;48.492;9.184;2023-07-20T05:15:21;18.00;64.00
1297;DHT22;641;48.492;9.184;2023-07-20T05:17:47;18.30;64.40
1297;DHT22;641;48.492;9.184;2023-07-20T05:20:14;18.30;62.30
1297;DHT22;641;48.492;9.184;2023-07-20T05:22:40;18.30;63.40
1297;DHT22;641;48.492;9.184;2023-07-20T05:25:07;18.40;62.60
1297;DHT22;641;48.492;9.184;2023-07-20T05:27:33;18.50;63.20
1297;DHT22;641;48.492;9.184;2023-07-20T05:29:59;18.50;62.50
1297;DHT22;641;48.492;9.184;2023-07-20T05:32:25;18.60;61.20
1297;DHT22;641;48.492;9.184;2023-07-20T05:34:54;18.60;61.30
1297;DHT22;641;48.492;9.184;2023-07-20T05:37:20;18.70;61.90
1297;DHT22;641;48.492;9.184;2023-07-20T05:39:45;18.70;63.00
1297;DHT22;641;48.492;9.184;2023-07-20T05:42:11;18.70;60.00
1297;DHT22;641;48.492;9.184;2023-07-20T05:44:37;18.60;60.80
1297;DHT22;641;48.492;9.184;2023-07-20T05:47:03;18.60;60.00
1297;DHT22;641;48.492;9.184;2023-07-20T05:49:29;18.60;61.00
1297;DHT22;641;48.492;9.184;2023-07-20T05:51:55;18.60;61.80
1297;DHT22;641;48.492;9.184;2023-07-20T05:54:21;18.70;61.10
1297;DHT22;641;48.492;9.184;2023-07-20T05:56:47;18.80;62.50
1297;DHT22;641;48.492;9.184;2023-07-20T05:59:13;18.90;62.60
1297;DHT22;641;48.492;9.184;2023-07-20T06:01:38;19.00;60.80
1297;DHT22;641;48.492;9.184;2023-07-20T06:04:04;18.90;60.20
1297;DHT22;641;48.492;9.184;2023-07-20T06:06:29;18.80;60.50
1297;DHT22;641;48.492;9.184;2023-07-20T06:08:55;18.90;61.30
1297;DHT22;641;48.492;9.184;2023-07-20T06:11:20;19.10;62.20
1297;DHT22;641;48.492;9.184;2023-07-20T06:13:46;19.10;61.80
1297;DHT22;641;48.492;9.184;2023-07-20T06:16:11;19.30;61.50
1297;DHT22;641;48.492;9.184;2023-07-20T06:18:37;19.40;60.90
1297;DHT22;641;48.492;9.184;2023-07-20T06:21:03;19.50;59.60
1297;DHT22;641;48.492;9.184;2023-07-20T06:23:28;19.40;60.00
1297;DHT22;641;48.492;9.184;2023-07-20T06:25:54;19.60;59.90
1297;DHT22;641;48.492;9.184;2023-07-20T06:28:19;19.60;60.40
1297;DHT22;641;48.492;9.184;2023-07-20T06:30:45;19.70;59.70
1297;DHT22;641;48.492;9.184;2023-07-20T06:33:11;19.70;59.80
1297;DHT22;641;48.492;9.184;2023-07-20T06:35:36;19.80;60.60
1297;DHT22;641;48.492;9.184;2023-07-20T06:38:02;19.90;59.30
1297;DHT22;641;48.492;9.184;2023-07-20T06:40:32;19.90;60.20
1297;DHT22;641;48.492;9.184;2023-07-20T06:42:57;20.00;59.70
1297;DHT22;641;48.492;9.184;2023-07-20T06:45:23;20.20;59.00
1297;DHT22;641;48.492;9.184;2023-07-20T06:47:48;20.20;58.80
1297;DHT22;641;48.492;9.184;2023-07-20T06:50:14;20.30;56.90
1297;DHT22;641;48.492;9.184;2023-07-20T06:52:41;20.30;57.80
1297;DHT22;641;48.492;9.184;2023-07-20T06:55:07;20.40;57.50
1297;DHT22;641;48.492;9.184;2023-07-20T06:57:32;20.50;57.10
1297;DHT22;641;48.492;9.184;2023-07-20T06:59:58;20.60;57.20
1297;DHT22;641;48.492;9.184;2023-07-20T07:02:23;20.60;55.70
1297;DHT22;641;48.492;9.184;2023-07-20T07:04:49;20.40;56.40
1297;DHT22;641;48.492;9.184;2023-07-20T07:07:15;20.40;56.70
1297;DHT22;641;48.492;9.184;2023-07-20T07:09:41;20.50;56.30
1297;DHT22;641;48.492;9.184;2023-07-20T07:12:07;20.30;55.00
1297;DHT22;641;48.492;9.184;2023-07-20T07:14:33;20.20;56.00
1297;DHT22;641;48.492;9.184;2023-07-20T07:17:00;20.50;57.10
1297;DHT22;641;48.492;9.184;2023-07-20T07:19:25;20.60;56.20
1297;DHT22;641;48.492;9.184;2023-07-20T07:21:51;20.60;55.60
1297;DHT22;641;48.492;9.184;2023-07-20T07:24:17;20.60;55.90
1297;DHT22;641;48.492;9.184;2023-07-20T07:26:42;20.70;55.90
1297;DHT22;641;48.492;9.184;2023-07-20T07:29:08;20.40;55.00
1297;DHT22;641;48.492;9.184;2023-07-20T07:31:34;20.50;57.40
1297;DHT22;641;48.492;9.184;2023-07-20T07:34:04;20.60;55.40
1297;DHT22;641;48.492;9.184;2023-07-20T07:36:30;20.30;55.00
1297;DHT22;641;48.492;9.184;2023-07-20T07:38:56;20.40;56.60
1297;DHT22;641;48.492;9.184;2023-07-20T07:41:21;20.30;55.50
1297;DHT22;641;48.492;9.184;2023-07-20T07:43:47;20.20;56.90
1297;DHT22;641;48.492;9.184;2023-07-20T07:46:13;20.10;56.50
1297;DHT22;641;48.492;9.184;2023-07-20T07:48:39;20.10;56.30
1297;DHT22;641;48.492;9.184;2023-07-20T07:51:05;20.20;57.60
1297;DHT22;641;48.492;9.184;2023-07-20T07:53:31;20.50;56.50
1297;DHT22;641;48.492;9.184;2023-07-20T07:55:58;20.60;58.00
1297;DHT22;641;48.492;9.184;2023-07-20T07:58:23;20.90;57.40
1297;DHT22;641;48.492;9.184;2023-07-20T08:00:49;20.80;56.00
1297;DHT22;641;48.492;9.184;2023-07-20T08:03:14;20.70;55.30
1297;DHT22;641;48.492;9.184;2023-07-20T08:05:40;20.40;56.20
1297;DHT22;641;48.492;9.184;2023-07-20T08:08:05;20.40;56.30
1297;DHT22;641;48.492;9.184;2023-07-20T08:10:31;20.40;56.00
1297;DHT22;641;48.492;9.184;2023-07-20T08:12:57;20.60;56.70
1297;DHT22;641;48.492;9.184;2023-07-20T08:15:22;20.80;55.30
1297;DHT22;641;48.492;9.184;2023-07-20T08:17:48;21.10;54.40
1297;DHT22;641;48.492;9.184;2023-07-20T08:20:14;21.30;53.90
1297;DHT22;641;48.492;9.184;2023-07-20T08:22:41;21.50;52.50
1297;DHT22;641;48.492;9.184;2023-07-20T08:25:08;21.30;52.60
1297;DHT22;641;48.492;9.184;2023-07-20T08:27:34;21.00;53.00
1297;DHT22;641;48.492;9.184;2023-07-20T08:29:59;20.80;51.80
1297;DHT22;641;48.492;9.184;2023-07-20T08:32:26;20.80;51.80
1297;DHT22;641;48.492;9.184;2023-07-20T08:34:51;21.00;51.90
1297;DHT22;641;48.492;9.184;2023-07-20T08:37:17;21.20;52.50
1297;DHT22;641;48.492;9.184;2023-07-20T08:39:43;21.50;52.60
1297;DHT22;641;48.492;9.184;2023-07-20T08:42:09;21.50;53.10
1297;DHT22;641;48.492;9.184;2023-07-20T08:44:37;21.80;52.70
1297;DHT22;641;48.492;9.184;2023-07-20T08:47:06;21.70;52.80
1297;DHT22;641;48.492;9.184;2023-07-20T08:49:32;21.80;52.90
1297;DHT22;641;48.492;9.184;2023-07-20T08:51:59;21.60;53.20
1297;DHT22;641;48.492;9.184;2023-07-20T08:54:29;21.80;52.70
1297;DHT22;641;48.492;9.184;2023-07-20T08:56:57;21.70;51.50
1297;DHT22;641;48.492;9.184;2023-07-20T08:59:23;21.50;49.30
1297;DHT22;641;48.492;9.184;2023-07-20T09:01:50;21.40;50.50
1297;DHT22;641;48.492;9.184;2023-07-20T09:04:17;21.40;52.20
1297;DHT22;641;48.492;9.184;2023-07-20T09:06:42;21.50;52.00
1297;DHT22;641;48.492;9.184;2023-07-20T09:09:08;21.60;50.90
1297;DHT22;641;48.492;9.184;2023-07-20T09:11:33;21.40;48.70
1297;DHT22;641;48.492;9.184;2023-07-20T09:14:06;21.50;50.00
1297;DHT22;641;48.492;9.184;2023-07-20T09:16:32;21.60;48.80
1297;DHT22;641;48.492;9.184;2023-07-20T09:18:58;21.60;49.10
1297;DHT22;641;48.492;9.184;2023-07-20T09:21:29;21.70;49.20
1297;DHT22;641;48.492;9.184;2023-07-20T09:23:56;21.90;49.00
1297;DHT22;641;48.492;9.184;2023-07-20T09:26:22;22.00;49.60
1297;DHT22;641;48.492;9.184;2023-07-20T09:28:50;21.90;50.10
1297;DHT22;641;48.492;9.184;2023-07-20T09:31:19;21.90;49.60
1297;DHT22;641;48.492;9.184;2023-07-20T09:33:45;22.30;47.60
1297;DHT22;641;48.492;9.184;2023-07-20T09:36:11;22.20;46.40
1297;DHT22;641;48.492;9.184;2023-07-20T09:38:37;22.10;47.80
1297;DHT22;641;48.492;9.184;2023-07-20T09:41:08;22.40;47.00
1297;DHT22;641;48.492;9.184;2023-07-20T09:43:38;22.70;46.90
1297;DHT22;641;48.492;9.184;2023-07-20T09:46:04;22.70;45.40
1297;DHT22;641;48.492;9.184;2023-07-20T09:48:30;23.00;46.90
1297;DHT22;641;48.492;9.184;2023-07-20T09:50:56;22.90;45.20
1297;DHT22;641;48.492;9.184;2023-07-20T09:53:24;23.00;44.80
1297;DHT22;641;48.492;9.184;2023-07-20T09:55:50;23.00;45.80
1297;DHT22;641;48.492;9.184;2023-07-20T09:58:17;22.90;45.00
1297;DHT22;641;48.492;9.184;2023-07-20T10:00:44;22.60;44.20
1297;DHT22;641;48.492;9.184;2023-07-20T10:03:16;22.20;44.60
1297;DHT22;641;48.492;9.184;2023-07-20T10:05:51;22.40;45.60
1297;DHT22;641;48.492;9.184;2023-07-20T10:08:19;22.50;44.70
1297;DHT22;641;48.492;9.184;2023-07-20T10:10:47;22.80;45.70
1297;DHT22;641;48.492;9.184;2023-07-20T10:13:27;23.10;44.50
1297;DHT22;641;48.492;9.184;2023-07-20T10:16:07;22.60;44.40
1297;DHT22;641;48.492;9.184;2023-07-20T10:18:51;22.10;44.50
1297;DHT22;641;48.492;9.184;2023-07-20T10:21:21;22.00;45.80
1297;DHT22;641;48.492;9.184;2023-07-20T10:23:50;22.00;46.00
1297;DHT22;641;48.492;9.184;2023-07-20T10:26:16;22.10;45.80
1297;DHT22;641;48.492;9.184;2023-07-20T10:28:41;22.30;44.50
1297;DHT22;641;48.492;9.184;2023-07-20T10:31:09;22.40;43.60
1297;DHT22;641;48.492;9.184;2023-07-20T10:33:37;22.60;43.80
1297;DHT22;641;48.492;9.184;2023-07-20T10:36:04;22.60;42.10
1297;DHT22;641;48.492;9.184;2023-07-20T10:38:40;22.40;42.60
1297;DHT22;641;48.492;9.184;2023-07-20T10:43:45;22.30;41.70
1297;DHT22;641;48.492;9.184;2023-07-20T10:46:12;22.60;41.90
1297;DHT22;641;48.492;9.184;2023-07-20T10:49:01;22.90;40.80
1297;DHT22;641;48.492;9.184;2023-07-20T10:51:28;23.10;41.20
1297;DHT22;641;48.492;9.184;2023-07-20T10:53:58;23.30;40.30
1297;DHT22;641;48.492;9.184;2023-07-20T10:56:27;23.60;41.30
1297;DHT22;641;48.492;9.184;2023-07-20T10:59:01;23.60;40.10
1297;DHT22;641;48.492;9.184;2023-07-20T11:01:44;23.50;39.90
1297;DHT22;641;48.492;9.184;2023-07-20T11:04:10;23.40;40.70
1297;DHT22;641;48.492;9.184;2023-07-20T11:06:36;23.30;39.40
1297;DHT22;641;48.492;9.184;2023-07-20T11:09:14;23.10;40.50
1297;DHT22;641;48.492;9.184;2023-07-20T11:11:41;22.90;40.60
1297;DHT22;641;48.492;9.184;2023-07-20T11:14:11;22.90;41.90
1297;DHT22;641;48.492;9.184;2023-07-20T11:16:47;23.10;40.10
1297;DHT22;641;48.492;9.184;2023-07-20T11:19:23;23.40;40.90
1297;DHT22;641;48.492;9.184;2023-07-20T11:21:53;23.70;40.50
1297;DHT22;641;48.492;9.184;2023-07-20T11:24:20;23.60;37.50
1297;DHT22;641;48.492;9.184;2023-07-20T11:26:47;23.70;39.20
1297;DHT22;641;48.492;9.184;2023-07-20T11:29:14;23.70;38.00
1297;DHT22;641;48.492;9.184;2023-07-20T11:31:42;23.70;38.40
1297;DHT22;641;48.492;9.184;2023-07-20T11:34:14;23.70;39.10
1297;DHT22;641;48.492;9.184;2023-07-20T11:36:41;23.70;39.20
1297;DHT22;641;48.492;9.184;2023-07-20T11:39:12;23.40;37.70
1297;DHT22;641;48.492;9.184;2023-07-20T11:41:41;23.50;39.80
1297;DHT22;641;48.492;9.184;2023-07-20T11:44:10;23.60;39.60
1297;DHT22;641;48.492;9.184;2023-07-20T11:46:39;23.40;38.00
1297;DHT22;641;48.492;9.184;2023-07-20T11:49:05;23.20;39.70
1297;DHT22;641;48.492;9.184;2023-07-20T11:51:31;23.20;39.80
1297;DHT22;641;48.492;9.184;2023-07-20T11:53:58;23.30;39.20
1297;DHT22;641;48.492;9.184;2023-07-20T11:56:25;23.40;38.10
1297;DHT22;641;48.492;9.184;2023-07-20T11:58:54;23.60;39.40
1297;DHT22;641;48.492;9.184;2023-07-20T12:01:19;23.90;39.10
1297;DHT22;641;48.492;9.184;2023-07-20T12:03:47;24.10;38.80
1297;DHT22;641;48.492;9.184;2023-07-20T12:06:13;24.10;37.70
1297;DHT22;641;48.492;9.184;2023-07-20T12:08:42;24.10;36.80
1297;DHT22;641;48.492;9.184;2023-07-20T12:11:08;24.10;37.70
1297;DHT22;641;48.492;9.184;2023-07-20T12:13:44;24.00;37.40
1297;DHT22;641;48.492;9.184;2023-07-20T12:16:11;24.00;37.20
1297;DHT22;641;48.492;9.184;2023-07-20T12:18:37;24.00;36.80
1297;DHT22;641;48.492;9.184;2023-07-20T12:21:02;23.80;36.60
1297;DHT22;641;48.492;9.184;2023-07-20T12:23:35;24.10;38.10
1297;DHT22;641;48.492;9.184;2023-07-20T12:26:02;24.40;36.10
1297;DHT22;641;48.492;9.184;2023-07-20T12:28:29;24.40;36.30
1297;DHT22;641;48.492;9.184;2023-07-20T12:30:55;24.40;35.20
1297;DHT22;641;48.492;9.184;2023-07-20T12:33:23;24.20;36.10
1297;DHT22;641;48.492;9.184;2023-07-20T12:35:49;24.00;37.00
1297;DHT22;641;48.492;9.184;2023-07-20T12:38:15;23.90;37.20
1297;DHT22;641;48.492;9.184;2023-07-20T12:40:41;24.00;37.20
1297;DHT22;641;48.492;9.184;2023-07-20T12:43:07;24.10;36.90
1297;DHT22;641;48.492;9.184;2023-07-20T12:45:33;24.00;37.90
1297;DHT22;641;48.492;9.184;2023-07-20T12:47:59;24.10;37.60
1297;DHT22;641;48.492;9.184;2023-07-20T12:50:25;24.30;38.40
1297;DHT22;641;48.492;9.184;2023-07-20T12:52:50;24.50;38.30
1297;DHT22;641;48.492;9.184;2023-07-20T12:55:16;24.40;36.00
1297;DHT22;641;48.492;9.184;2023-07-20T12:57:41;24.20;35.60
1297;DHT22;641;48.492;9.184;2023-07-20T13:00:09;24.10;35.40
1297;DHT22;641;48.492;9.184;2023-07-20T13:02:35;24.20;36.70
1297;DHT22;641;48.492;9.184;2023-07-20T13:05:02;24.40;37.10
1297;DHT22;641;48.492;9.184;2023-07-20T13:07:31;24.60;36.20
1297;DHT22;641;48.492;9.184;2023-07-20T13:09:58;24.80;36.50
1297;DHT22;641;48.492;9.184;2023-07-20T13:12:26;24.70;35.80
1297;DHT22;641;48.492;9.184;2023-07-20T13:14:51;24.70;35.60
1297;DHT22;641;48.492;9.184;2023-07-20T13:17:17;25.00;36.90
1297;DHT22;641;48.492;9.184;2023-07-20T13:19:42;25.00;35.80
1297;DHT22;641;48.492;9.184;2023-07-20T13:22:08;25.20;36.10
1297;DHT22;641;48.492;9.184;2023-07-20T13:24:33;25.00;35.80
1297;DHT22;641;48.492;9.184;2023-07-20T13:26:59;25.00;34.90
1297;DHT22;641;48.492;9.184;2023-07-20T13:29:25;25.10;35.90
1297;DHT22;641;48.492;9.184;2023-07-20T13:31:50;24.90;35.00
1297;DHT22;641;48.492;9.184;2023-07-20T13:34:16;24.90;35.00
1297;DHT22;641;48.492;9.184;2023-07-20T13:36:41;25.10;36.40
1297;DHT22;641;48.492;9.184;2023-07-20T13:39:07;25.20;34.40
1297;DHT22;641;48.492;9.184;2023-07-20T13:41:34;25.20;35.50
1297;DHT22;641;48.492;9.184;2023-07-20T13:43:59;25.40;35.90
1297;DHT22;641;48.492;9.184;2023-07-20T13:46:25;25.40;34.40
1297;DHT22;641;48.492;9.184;2023-07-20T13:48:51;25.30;34.40
1297;DHT22;641;48.492;9.184;2023-07-20T13:51:17;25.20;34.30
1297;DHT22;641;48.492;9.184;2023-07-20T13:53:43;25.20;34.80
1297;DHT22;641;48.492;9.184;2023-07-20T13:56:10;25.30;34.90
1297;DHT22;641;48.492;9.184;2023-07-20T13:58:35;25.20;33.70
1297;DHT22;641;48.492;9.184;2023-07-20T14:01:02;25.20;33.50
1297;DHT22;641;48.492;9.184;2023-07-20T14:03:27;25.30;36.50
1297;DHT22;641;48.492;9.184;2023-07-20T14:05:53;25.50;33.50
1297;DHT22;641;48.492;9.184;2023-07-20T14:08:19;25.50;34.90
1297;DHT22;641;48.492;9.184;2023-07-20T14:10:44;25.70;34.70
1297;DHT22;641;48.492;9.184;2023-07-20T14:13:10;25.80;34.30
1297;DHT22;641;48.492;9.184;2023-07-20T14:15:35;25.90;34.00
1297;DHT22;641;48.492;9.184;2023-07-20T14:18:01;25.80;32.40
1297;DHT22;641;48.492;9.184;2023-07-20T14:20:27;25.70;32.70
1297;DHT22;641;48.492;9.184;2023-07-20T14:22:52;25.70;34.20
1297;DHT22;641;48.492;9.184;2023-07-20T14:25:18;25.80;34.50
1297;DHT22;641;48.492;9.184;2023-07-20T14:27:43;26.10;34.90
1297;DHT22;641;48.492;9.184;2023-07-20T14:30:09;26.00;32.80
1297;DHT22;641;48.492;9.184;2023-07-20T14:32:35;26.00;31.80
1297;DHT22;641;48.492;9.184;2023-07-20T14:35:01;25.90;32.40
1297;DHT22;641;48.492;9.184;2023-07-20T14:37:26;25.60;32.70
1297;DHT22;641;48.492;9.184;2023-07-20T14:39:52;25.60;32.80
1297;DHT22;641;48.492;9.184;2023-07-20T14:42:18;25.30;32.60
1297;DHT22;641;48.492;9.184;2023-07-20T14:44:44;25.20;33.30
1297;DHT22;641;48.492;9.184;2023-07-20T14:47:09;25.50;35.00
1297;DHT22;641;48.492;9.184;2023-07-20T14:49:35;25.90;34.80
1297;DHT22;641;48.492;9.184;2023-07-20T14:52:02;26.10;32.80
1297;DHT22;641;48.492;9.184;2023-07-20T14:54:27;25.90;32.60
1297;DHT22;641;48.492;9.184;2023-07-20T14:56:53;26.00;35.60
1297;DHT22;641;48.492;9.184;2023-07-20T14:59:19;26.30;33.10
1297;DHT22;641;48.492;9.184;2023-07-20T15:01:45;26.60;33.40
1297;DHT22;641;48.492;9.184;2023-07-20T15:04:12;26.80;30.90
1297;DHT22;641;48.492;9.184;2023-07-20T15:06:37;26.80;31.10
1297;DHT22;641;48.492;9.184;2023-07-20T15:09:03;27.00;31.50
1297;DHT22;641;48.492;9.184;2023-07-20T15:11:29;26.90;31.00
1297;DHT22;641;48.492;9.184;2023-07-20T15:13:55;26.60;31.70
1297;DHT22;641;48.492;9.184;2023-07-20T15:16:23;26.70;32.50
1297;DHT22;641;48.492;9.184;2023-07-20T15:18:48;27.40;32.50
1297;DHT22;641;48.492;9.184;2023-07-20T15:21:17;28.10;30.40
1297;DHT22;641;48.492;9.184;2023-07-20T15:23:43;29.40;30.10
1297;DHT22;641;48.492;9.184;2023-07-20T15:26:09;30.70;27.70
1297;DHT22;641;48.492;9.184;2023-07-20T15:28:36;31.50;27.20
1297;DHT22;641;48.492;9.184;2023-07-20T15:31:03;31.70;25.20
1297;DHT22;641;48.492;9.184;2023-07-20T15:33:29;31.90;25.90
1297;DHT22;641;48.492;9.184;2023-07-20T15:35:55;32.30;25.60
1297;DHT22;641;48.492;9.184;2023-07-20T15:38:21;31.80;24.80
1297;DHT22;641;48.492;9.184;2023-07-20T15:40:47;31.10;26.10
1297;DHT22;641;48.492;9.184;2023-07-20T15:43:14;31.70;25.60
1297;DHT22;641;48.492;9.184;2023-07-20T15:45:40;32.50;25.90
1297;DHT22;641;48.492;9.184;2023-07-20T15:48:05;31.60;25.20
1297;DHT22;641;48.492;9.184;2023-07-20T15:50:31;30.90;26.50
1297;DHT22;641;48.492;9.184;2023-07-20T15:52:57;30.10;26.70
1297;DHT22;641;48.492;9.184;2023-07-20T15:55:22;30.20;26.90
1297;DHT22;641;48.492;9.184;2023-07-20T15:57:48;29.90;26.60
1297;DHT22;641;48.492;9.184;2023-07-20T16:00:14;29.00;27.00
1297;DHT22;641;48.492;9.184;2023-07-20T16:02:40;29.20;26.90
1297;DHT22;641;48.492;9.184;2023-07-20T16:05:05;30.30;26.80
1297;DHT22;641;48.492;9.184;2023-07-20T16:07:31;31.20;26.30
1297;DHT22;641;48.492;9.184;2023-07-20T16:09:58;31.40;27.20
1297;DHT22;641;48.492;9.184;2023-07-20T16:12:27;30.20;26.90
1297;DHT22;641;48.492;9.184;2023-07-20T16:14:54;29.80;28.00
1297;DHT22;641;48.492;9.184;2023-07-20T16:17:19;30.10;28.20
1297;DHT22;641;48.492;9.184;2023-07-20T16:19:45;31.00;27.20
1297;DHT22;641;48.492;9.184;2023-07-20T16:22:11;31.40;26.40